createdAt,value
2018-05-06T00:01:51.950Z,98579.06
2018-05-06T00:04:20.955Z,98577.36
2018-05-06T00:06:49.315Z,98570.44
2018-05-06T00:09:18.039Z,98572.36
2018-05-06T00:11:46.964Z,98574.33
2018-05-06T00:14:15.238Z,98578.36
2018-05-06T00:16:45.054Z,98573.76
2018-05-06T00:19:13.373Z,98569.34
2018-05-06T00:21:41.658Z,98569.91
2018-05-06T00:24:10.024Z,98568.89
2018-05-06T00:26:38.885Z,98565.33
2018-05-06T00:29:07.333Z,98572.15
2018-05-06T00:31:37.115Z,98570.49
2018-05-06T00:34:06.002Z,98574.16
2018-05-06T00:36:35.188Z,98574.21
2018-05-06T00:39:03.645Z,98578.67
2018-05-06T00:41:31.974Z,98579.38
2018-05-06T00:44:00.933Z,98581.88
2018-05-06T00:46:29.323Z,98583.16
2018-05-06T00:48:57.600Z,98592.67
2018-05-06T00:51:26.445Z,98594.17
2018-05-06T00:53:54.787Z,98595.46
2018-05-06T00:56:23.098Z,98591.02
2018-05-06T00:58:51.430Z,98589.95
2018-05-06T01:01:19.823Z,98588.18
2018-05-06T01:03:48.434Z,98589.75
2018-05-06T01:06:16.726Z,98594.40
2018-05-06T01:08:45.235Z,98593.12
2018-05-06T01:11:13.578Z,98595.48
2018-05-06T01:13:42.635Z,98596.88
2018-05-06T01:16:11.176Z,98601.09
2018-05-06T01:18:39.459Z,98606.40
2018-05-06T01:21:07.751Z,98610.36
2018-05-06T01:23:36.062Z,98611.84
2018-05-06T01:26:04.416Z,98615.38
2018-05-06T01:28:32.726Z,98605.54
2018-05-06T01:31:01.198Z,98610.05
2018-05-06T01:33:29.494Z,98608.69
2018-05-06T01:35:57.851Z,98616.63
2018-05-06T01:38:26.307Z,98619.52
2018-05-06T01:40:55.361Z,98619.13
2018-05-06T01:43:23.650Z,98618.03
2018-05-06T01:45:52.227Z,98621.28
2018-05-06T01:48:21.669Z,98623.55
2018-05-06T01:50:50.006Z,98626.12
2018-05-06T01:53:18.363Z,98625.62
2018-05-06T01:55:46.933Z,98628.10
2018-05-06T01:58:15.273Z,98630.83
2018-05-06T02:00:43.634Z,98627.56
2018-05-06T02:03:12.331Z,98631.61
2018-05-06T02:05:41.450Z,98631.39
2018-05-06T02:08:09.736Z,98631.89
2018-05-06T02:10:38.069Z,98629.34
2018-05-06T02:13:07.145Z,98630.23
2018-05-06T02:15:35.442Z,98628.84
2018-05-06T02:18:03.759Z,98627.52
2018-05-06T02:20:32.059Z,98623.19
2018-05-06T02:23:00.352Z,98621.63
2018-05-06T02:25:29.446Z,98625.84
2018-05-06T02:27:57.749Z,98629.22
2018-05-06T02:30:29.480Z,98630.28
2018-05-06T02:32:59.250Z,98627.20
2018-05-06T02:35:27.849Z,98640.34
2018-05-06T02:37:57.296Z,98635.02
2018-05-06T02:40:25.730Z,98640.71
2018-05-06T02:42:54.397Z,98642.70
2018-05-06T02:45:23.203Z,98638.91
2018-05-06T02:47:51.629Z,98641.64
2018-05-06T02:50:19.903Z,98641.24
2018-05-06T02:52:48.242Z,98639.75
2018-05-06T02:55:17.063Z,98633.33
2018-05-06T02:57:45.452Z,98631.78
2018-05-06T03:00:14.074Z,98631.98
2018-05-06T03:02:42.355Z,98631.59
2018-05-06T03:05:10.683Z,98629.13
2018-05-06T03:07:38.999Z,98632.41
2018-05-06T03:10:07.319Z,98627.98
2018-05-06T03:12:35.603Z,98634.68
2018-05-06T03:15:03.914Z,98638.94
2018-05-06T03:17:32.199Z,98637.15
2018-05-06T03:20:01.023Z,98640.01
2018-05-06T03:22:29.311Z,98648.59
2018-05-06T03:24:57.629Z,98649.86
2018-05-06T03:27:25.918Z,98645.58
2018-05-06T03:29:54.760Z,98651.69
2018-05-06T03:32:23.075Z,98649.70
2018-05-06T03:34:51.384Z,98656.09
2018-05-06T03:37:20.021Z,98649.41
2018-05-06T03:39:48.303Z,98660.42
2018-05-06T03:42:16.604Z,98657.03
2018-05-06T03:44:44.911Z,98657.03
2018-05-06T03:47:13.187Z,98657.73
2018-05-06T03:49:41.525Z,98656.86
2018-05-06T03:52:09.858Z,98655.75
2018-05-06T03:54:38.748Z,98660.30
2018-05-06T03:57:24.638Z,98663.19
2018-05-06T04:00:11.036Z,98658.80
2018-05-06T04:02:39.959Z,98656.31
2018-05-06T04:05:08.242Z,98661.77
2018-05-06T04:07:36.785Z,98660.45
2018-05-06T04:10:05.070Z,98659.56
2018-05-06T04:12:33.350Z,98665.56
2018-05-06T04:15:02.143Z,98661.09
2018-05-06T04:17:30.430Z,98663.19
2018-05-06T04:19:59.103Z,98666.33
2018-05-06T04:22:27.430Z,98666.23
2018-05-06T04:24:56.390Z,98665.61
2018-05-06T04:27:24.678Z,98668.81
2018-05-06T04:29:53.207Z,98667.41
2018-05-06T04:32:21.502Z,98674.37
2018-05-06T04:34:49.807Z,98665.14
2018-05-06T04:37:19.504Z,98670.75
2018-05-06T04:39:47.835Z,98671.12
2018-05-06T04:42:16.546Z,98672.34
2018-05-06T04:44:45.241Z,98668.14
2018-05-06T04:47:13.566Z,98667.41
2018-05-06T04:49:41.852Z,98663.66
2018-05-06T04:52:10.135Z,98665.54
2018-05-06T04:54:38.454Z,98668.84
2018-05-06T04:57:06.738Z,98670.73
2018-05-06T04:59:34.794Z,98670.60
2018-05-06T05:02:03.150Z,98676.74
2018-05-06T05:04:31.738Z,98680.56
2018-05-06T05:07:00.560Z,98674.73
2018-05-06T05:09:28.892Z,98682.64
2018-05-06T05:11:57.799Z,98676.84
2018-05-06T05:14:26.507Z,98680.56
2018-05-06T05:16:54.839Z,98676.84
2018-05-06T05:19:23.123Z,98678.78
2018-05-06T05:21:51.815Z,98678.05
2018-05-06T05:24:20.188Z,98677.75
2018-05-06T05:26:49.131Z,98685.08
2018-05-06T05:29:17.412Z,98685.02
2018-05-06T05:31:45.737Z,98684.78
2018-05-06T05:34:14.015Z,98684.40
2018-05-06T05:36:42.294Z,98684.86
2018-05-06T05:39:10.606Z,98687.67
2018-05-06T05:41:39.503Z,98687.39
2018-05-06T05:44:07.782Z,98683.92
2018-05-06T05:46:36.190Z,98683.02
2018-05-06T05:49:04.475Z,98690.89
2018-05-06T05:51:33.406Z,98689.92
2018-05-06T05:54:01.746Z,98686.55
2018-05-06T05:56:30.034Z,98689.70
2018-05-06T05:58:58.315Z,98694.06
2018-05-06T06:01:26.426Z,98697.34
2018-05-06T06:03:55.290Z,98693.90
2018-05-06T06:06:23.568Z,98690.95
2018-05-06T06:08:51.900Z,98688.28
2018-05-06T06:11:20.723Z,98689.78
2018-05-06T06:13:49.003Z,98682.33
2018-05-06T06:16:17.335Z,98685.18
2018-05-06T06:18:45.623Z,98690.26
2018-05-06T06:21:14.673Z,98694.59
2018-05-06T06:23:43.000Z,98690.37
2018-05-06T06:26:12.046Z,98694.36
2018-05-06T06:28:40.331Z,98692.70
2018-05-06T06:31:08.667Z,98693.56
2018-05-06T06:33:37.150Z,98684.70
2018-05-06T06:36:05.519Z,98689.45
2018-05-06T06:38:33.835Z,98690.81
2018-05-06T06:41:02.118Z,98677.00
2018-05-06T06:43:30.395Z,98679.98
2018-05-06T06:45:58.723Z,98682.12
2018-05-06T06:48:27.003Z,98680.84
2018-05-06T06:50:55.094Z,98682.97
2018-05-06T06:53:23.418Z,98683.89
2018-05-06T06:55:52.072Z,98686.67
2018-05-06T06:58:20.281Z,98684.78
2018-05-06T07:00:48.635Z,98681.55
2018-05-06T07:03:17.367Z,98682.00
2018-05-06T07:05:46.428Z,98682.95
2018-05-06T07:08:14.947Z,98682.58
2018-05-06T07:10:43.868Z,98681.09
2018-05-06T07:13:12.190Z,98680.05
2018-05-06T07:15:40.475Z,98683.42
2018-05-06T07:18:09.210Z,98684.55
2018-05-06T07:20:37.540Z,98680.66
2018-05-06T07:23:05.822Z,98671.58
2018-05-06T07:25:35.088Z,98675.06
2018-05-06T07:28:03.934Z,98684.15
2018-05-06T07:30:32.464Z,98690.71
2018-05-06T07:33:00.867Z,98680.13
2018-05-06T07:35:29.155Z,98682.05
2018-05-06T07:37:58.210Z,98671.83
2018-05-06T07:40:26.520Z,98673.40
2018-05-06T07:42:54.946Z,98671.76
2018-05-06T07:45:23.234Z,98679.36
2018-05-06T07:47:51.599Z,98673.38
2018-05-06T07:50:22.672Z,98669.55
2018-05-06T07:52:50.980Z,98666.63
2018-05-06T07:55:19.263Z,98665.25
2018-05-06T07:57:47.611Z,98663.91
2018-05-06T08:00:15.887Z,98663.97
2018-05-06T08:02:44.463Z,98661.22
2018-05-06T08:05:12.908Z,98660.92
2018-05-06T08:07:41.196Z,98661.11
2018-05-06T08:10:09.471Z,98661.44
2018-05-06T08:12:37.779Z,98652.48
2018-05-06T08:15:06.614Z,98652.19
2018-05-06T08:17:35.418Z,98652.46
2018-05-06T08:20:03.770Z,98647.88
2018-05-06T08:22:32.051Z,98649.48
2018-05-06T08:25:00.336Z,98644.87
2018-05-06T08:27:28.668Z,98638.59
2018-05-06T08:29:56.955Z,98640.84
2018-05-06T08:32:25.243Z,98644.42
2018-05-06T08:34:53.580Z,98639.96
2018-05-06T08:37:21.871Z,98639.21
2018-05-06T08:39:50.150Z,98638.63
2018-05-06T08:42:18.863Z,98646.78
2018-05-06T08:44:47.146Z,98642.43
2018-05-06T08:47:15.423Z,98644.72
2018-05-06T08:49:43.940Z,98643.53
2018-05-06T08:52:12.266Z,98644.57
2018-05-06T08:54:40.555Z,98640.97
2018-05-06T08:57:08.870Z,98642.42
2018-05-06T08:59:37.191Z,98636.89
2018-05-06T09:02:05.443Z,98639.03
2018-05-06T09:04:33.983Z,98635.80
2018-05-06T09:07:02.367Z,98640.98
2018-05-06T09:09:30.651Z,98636.83
2018-05-06T09:11:59.110Z,98639.77
2018-05-06T09:14:27.872Z,98634.91
2018-05-06T09:16:56.240Z,98635.62
2018-05-06T09:19:24.548Z,98633.81
2018-05-06T09:21:52.852Z,98627.19
2018-05-06T09:24:21.363Z,98620.46
2018-05-06T09:26:50.032Z,98621.06
2018-05-06T09:29:18.335Z,98629.98
2018-05-06T09:31:46.669Z,98628.63
2018-05-06T09:34:15.027Z,98624.23
2018-05-06T09:36:43.595Z,98623.39
2018-05-06T09:39:11.880Z,98622.02
2018-05-06T09:41:40.208Z,98618.62
2018-05-06T09:44:08.504Z,98618.48
2018-05-06T09:46:36.786Z,98616.14
2018-05-06T09:49:05.351Z,98611.22
2018-05-06T09:51:33.631Z,98615.24
2018-05-06T09:54:01.910Z,98609.33
2018-05-06T09:56:30.258Z,98606.64
2018-05-06T09:58:58.942Z,98604.95
2018-05-06T10:01:27.390Z,98599.44
2018-05-06T10:03:56.279Z,98598.20
2018-05-06T10:06:24.578Z,98596.78
2018-05-06T10:08:53.367Z,98593.17
2018-05-06T10:11:21.651Z,98594.84
2018-05-06T10:13:49.943Z,98600.05
2018-05-06T10:16:18.251Z,98592.72
2018-05-06T10:18:46.975Z,98594.30
2018-05-06T10:21:15.297Z,98583.52
2018-05-06T10:23:43.579Z,98580.19
2018-05-06T10:26:11.885Z,98583.10
2018-05-06T10:28:40.198Z,98577.59
2018-05-06T10:31:10.257Z,98576.70
2018-05-06T10:33:38.553Z,98573.77
2018-05-06T10:36:07.407Z,98570.45
2018-05-06T10:38:35.692Z,98566.91
2018-05-06T10:41:03.979Z,98562.20
2018-05-06T10:43:32.278Z,98557.27
2018-05-06T10:46:00.847Z,98546.23
2018-05-06T10:48:29.659Z,98547.88
2018-05-06T10:50:58.002Z,98539.39
2018-05-06T10:53:26.767Z,98552.72
2018-05-06T10:55:55.042Z,98551.13
2018-05-06T10:58:23.357Z,98538.06
2018-05-06T11:00:51.641Z,98543.66
2018-05-06T11:03:19.926Z,98538.72
2018-05-06T11:05:48.239Z,98533.95
2018-05-06T11:08:16.578Z,98530.29
2018-05-06T11:10:45.284Z,98519.98
2018-05-06T11:13:13.673Z,98511.52
2018-05-06T11:15:41.952Z,98521.25
2018-05-06T11:18:10.297Z,98512.61
2018-05-06T11:20:38.967Z,98512.30
2018-05-06T11:23:08.568Z,98506.51
2018-05-06T11:25:36.887Z,98508.84
2018-05-06T11:28:05.167Z,98518.25
2018-05-06T11:30:33.448Z,98501.09
2018-05-06T11:33:01.768Z,98511.92
2018-05-06T11:35:30.059Z,98507.19
2018-05-06T11:37:58.334Z,98501.35
2018-05-06T11:40:27.676Z,98492.69
2018-05-06T11:42:55.958Z,98498.95
2018-05-06T11:45:25.135Z,98507.08
2018-05-06T11:47:53.478Z,98498.73
2018-05-06T11:50:22.263Z,98502.11
2018-05-06T11:52:50.552Z,98505.14
2018-05-06T11:55:18.891Z,98510.06
2018-05-06T11:57:47.935Z,98496.53
2018-05-06T12:00:17.492Z,98502.03
2018-05-06T12:02:46.713Z,98493.52
2018-05-06T12:05:15.002Z,98481.93
2018-05-06T12:07:43.374Z,98482.27
2018-05-06T12:10:11.703Z,98492.20
2018-05-06T12:12:39.988Z,98490.73
2018-05-06T12:15:08.274Z,98479.04
2018-05-06T12:17:36.608Z,98480.55
2018-05-06T12:20:05.515Z,98480.83
2018-05-06T12:22:35.427Z,98478.34
2018-05-06T12:25:04.425Z,98474.50
2018-05-06T12:27:32.714Z,98476.43
2018-05-06T12:30:01.505Z,98460.75
2018-05-06T12:32:29.841Z,98475.53
2018-05-06T12:34:58.339Z,98464.13
2018-05-06T12:37:26.627Z,98460.08
2018-05-06T12:39:54.943Z,98466.58
2018-05-06T12:42:23.237Z,98456.17
2018-05-06T12:44:51.535Z,98455.59
2018-05-06T12:47:19.844Z,98452.67
2018-05-06T12:49:48.127Z,98454.34
2018-05-06T12:52:16.437Z,98456.94
2018-05-06T12:54:46.007Z,98448.30
2018-05-06T12:57:14.290Z,98442.66
2018-05-06T12:59:42.603Z,98442.73
2018-05-06T13:02:10.882Z,98440.97
2018-05-06T13:04:40.175Z,98432.15
2018-05-06T13:07:08.495Z,98432.97
2018-05-06T13:09:36.778Z,98429.17
2018-05-06T13:12:05.082Z,98431.94
2018-05-06T13:14:33.355Z,98427.30
2018-05-06T13:17:01.636Z,98425.74
2018-05-06T13:19:29.962Z,98425.00
2018-05-06T13:21:58.919Z,98424.48
2018-05-06T13:24:27.202Z,98417.63
2018-05-06T13:26:55.574Z,98411.74
2018-05-06T13:29:23.858Z,98418.70
2018-05-06T13:31:52.138Z,98408.95
2018-05-06T13:34:20.470Z,98417.26
2018-05-06T13:36:49.414Z,98413.50
2018-05-06T13:39:17.695Z,98414.75
2018-05-06T13:41:47.355Z,98411.97
2018-05-06T13:44:15.663Z,98415.89
2018-05-06T13:46:45.162Z,98414.91
2018-05-06T13:49:13.895Z,98419.26
2018-05-06T13:51:42.174Z,98407.81
2018-05-06T13:54:10.455Z,98410.86
2018-05-06T13:56:38.810Z,98412.38
2018-05-06T13:59:07.135Z,98405.72
2018-05-06T14:01:35.415Z,98404.91
2018-05-06T14:04:03.757Z,98403.17
2018-05-06T14:06:32.188Z,98401.19
2018-05-06T14:09:00.479Z,98391.78
2018-05-06T14:11:28.795Z,98401.02
2018-05-06T14:13:57.371Z,98381.03
2018-05-06T14:16:25.651Z,98380.93
2018-05-06T14:18:53.987Z,98386.88
2018-05-06T14:21:22.281Z,98384.69
2018-05-06T14:23:50.625Z,98385.37
2018-05-06T14:26:18.975Z,98383.72
2018-05-06T14:28:47.035Z,98383.02
2018-05-06T14:31:15.323Z,98373.20
2018-05-06T14:33:43.654Z,98378.65
2018-05-06T14:36:12.355Z,98382.14
2018-05-06T14:38:41.004Z,98388.15
2018-05-06T14:41:09.326Z,98381.97
2018-05-06T14:43:37.807Z,98376.72
2018-05-06T14:46:06.099Z,98374.44
2018-05-06T14:48:34.704Z,98372.95
2018-05-06T14:51:03.387Z,98368.20
2018-05-06T14:53:31.680Z,98380.78
2018-05-06T14:56:00.068Z,98370.37
2018-05-06T14:58:28.339Z,98374.44
2018-05-06T15:00:56.632Z,98359.78
2018-05-06T15:03:24.960Z,98368.23
2018-05-06T15:05:53.251Z,98364.79
2018-05-06T15:08:21.537Z,98366.09
2018-05-06T15:10:50.082Z,98366.98
2018-05-06T15:13:18.907Z,98371.29
2018-05-06T15:15:47.273Z,98368.31
2018-05-06T15:18:15.911Z,98359.70
2018-05-06T15:20:44.964Z,98356.77
2018-05-06T15:23:13.723Z,98360.80
2018-05-06T15:25:42.158Z,98368.98
2018-05-06T15:28:10.854Z,98350.77
2018-05-06T15:30:39.162Z,98352.01
2018-05-06T15:33:07.445Z,98353.30
2018-05-06T15:35:35.729Z,98351.77
2018-05-06T15:38:04.175Z,98345.11
2018-05-06T15:40:32.454Z,98349.30
2018-05-06T15:43:00.745Z,98343.12
2018-05-06T15:45:29.059Z,98338.81
2018-05-06T15:47:57.342Z,98334.66
2018-05-06T15:50:26.457Z,98342.91
2018-05-06T15:52:55.423Z,98339.87
2018-05-06T15:55:23.715Z,98342.97
2018-05-06T15:57:52.005Z,98338.50
2018-05-06T16:00:20.579Z,98334.47
2018-05-06T16:03:06.602Z,98339.08
2018-05-06T16:05:34.919Z,98330.77
2018-05-06T16:08:03.215Z,98334.32
2018-05-06T16:10:31.549Z,98336.14
2018-05-06T16:13:00.490Z,98327.92
2018-05-06T16:15:28.783Z,98330.73
2018-05-06T16:17:57.127Z,98334.58
2018-05-06T16:20:25.583Z,98334.34
2018-05-06T16:22:53.873Z,98331.73
2018-05-06T16:25:22.187Z,98329.98
2018-05-06T16:27:50.722Z,98330.38
2018-05-06T16:30:19.019Z,98343.53
2018-05-06T16:32:47.327Z,98339.17
2018-05-06T16:35:15.614Z,98343.36
2018-05-06T16:37:43.922Z,98331.83
2018-05-06T16:40:12.271Z,98340.68
2018-05-06T16:42:40.918Z,98337.35
2018-05-06T16:45:09.950Z,98336.32
2018-05-06T16:47:38.243Z,98337.95
2018-05-06T16:50:06.551Z,98339.17
2018-05-06T16:52:34.832Z,98339.69
2018-05-06T16:55:03.411Z,98330.21
2018-05-06T16:57:31.731Z,98328.84
2018-05-06T17:00:00.015Z,98339.25
2018-05-06T17:02:28.361Z,98331.20
2018-05-06T17:04:56.639Z,98336.27
2018-05-06T17:07:24.919Z,98327.44
2018-05-06T17:09:53.227Z,98331.94
2018-05-06T17:12:21.502Z,98324.72
2018-05-06T17:14:49.786Z,98320.66
2018-05-06T17:17:18.149Z,98336.91
2018-05-06T17:19:46.463Z,98338.84
2018-05-06T17:22:14.747Z,98339.19
2018-05-06T17:24:43.075Z,98332.55
2018-05-06T17:27:11.356Z,98337.17
2018-05-06T17:29:39.742Z,98336.80
2018-05-06T17:32:08.046Z,98332.65
2018-05-06T17:34:37.070Z,98339.55
2018-05-06T17:37:05.363Z,98343.27
2018-05-06T17:39:33.693Z,98348.12
2018-05-06T17:42:01.971Z,98348.71
2018-05-06T17:44:30.251Z,98354.82
2018-05-06T17:46:58.627Z,98356.77
2018-05-06T17:49:28.187Z,98360.48
2018-05-06T17:51:57.290Z,98359.69
2018-05-06T17:54:25.626Z,98358.62
2018-05-06T17:56:53.907Z,98357.64
2018-05-06T17:59:22.182Z,98359.90
2018-05-06T18:01:51.275Z,98355.13
2018-05-06T18:04:19.561Z,98357.86
2018-05-06T18:06:47.839Z,98356.67
2018-05-06T18:09:16.171Z,98350.36
2018-05-06T18:11:45.139Z,98358.77
2018-05-06T18:14:13.426Z,98358.19
2018-05-06T18:16:43.214Z,98354.92
2018-05-06T18:19:11.500Z,98353.31
2018-05-06T18:21:40.161Z,98358.73
2018-05-06T18:24:08.486Z,98359.70
2018-05-06T18:26:36.774Z,98355.07
2018-05-06T18:29:05.834Z,98356.83
2018-05-06T18:31:34.199Z,98359.64
2018-05-06T18:34:02.479Z,98364.72
2018-05-06T18:36:30.757Z,98366.16
2018-05-06T18:38:59.847Z,98364.68
2018-05-06T18:41:28.130Z,98376.93
2018-05-06T18:43:56.604Z,98381.53
2018-05-06T18:46:24.923Z,98378.41
2018-05-06T18:48:53.207Z,98377.14
2018-05-06T18:51:21.483Z,98384.34
2018-05-06T18:53:49.817Z,98376.77
2018-05-06T18:56:18.203Z,98390.02
2018-05-06T18:58:47.306Z,98388.11
2018-05-06T19:01:16.245Z,98389.26
2018-05-06T19:03:44.878Z,98390.20
2018-05-06T19:06:13.774Z,98393.44
2018-05-06T19:08:42.471Z,98392.84
2018-05-06T19:11:11.163Z,98391.17
2018-05-06T19:13:39.441Z,98394.17
2018-05-06T19:16:07.723Z,98396.03
2018-05-06T19:18:36.050Z,98395.30
2018-05-06T19:21:04.331Z,98400.05
2018-05-06T19:23:32.675Z,98390.84
2018-05-06T19:26:00.987Z,98397.81
2018-05-06T19:28:30.131Z,98405.09
2018-05-06T19:30:59.558Z,98403.09
2018-05-06T19:33:27.847Z,98407.77
2018-05-06T19:35:56.167Z,98408.73
2018-05-06T19:38:24.875Z,98408.91
2018-05-06T19:40:53.159Z,98413.73
2018-05-06T19:43:21.507Z,98410.31
2018-05-06T19:45:49.797Z,98405.15
2018-05-06T19:48:18.071Z,98415.42
2018-05-06T19:50:46.851Z,98411.95
2018-05-06T19:53:15.218Z,98412.98
2018-05-06T19:55:43.987Z,98418.50
2018-05-06T19:58:13.325Z,98420.31
2018-05-06T20:00:42.431Z,98420.16
2018-05-06T20:03:11.353Z,98424.84
2018-05-06T20:05:39.595Z,98422.27
2018-05-06T20:08:08.904Z,98420.05
2018-05-06T20:10:37.986Z,98432.54
2018-05-06T20:13:06.913Z,98427.50
2018-05-06T20:15:35.543Z,98429.13
2018-05-06T20:18:03.826Z,98428.10
2018-05-06T20:20:32.482Z,98423.37
2018-05-06T20:23:01.225Z,98430.03
2018-05-06T20:25:29.455Z,98430.72
2018-05-06T20:27:57.566Z,98433.56
2018-05-06T20:30:26.203Z,98432.84
2018-05-06T20:32:55.634Z,98435.52
2018-05-06T20:35:24.210Z,98425.13
2018-05-06T20:37:53.949Z,98428.81
2018-05-06T20:40:22.266Z,98434.12
2018-05-06T20:42:50.600Z,98430.19
2018-05-06T20:45:18.799Z,98426.83
2018-05-06T20:47:47.050Z,98430.47
2018-05-06T20:50:15.871Z,98430.91
2018-05-06T20:52:45.158Z,98433.17
2018-05-06T20:55:13.463Z,98438.92
2018-05-06T20:57:41.972Z,98435.00
2018-05-06T21:00:10.768Z,98443.53
2018-05-06T21:02:39.055Z,98437.18
2018-05-06T21:05:07.454Z,98435.50
2018-05-06T21:07:36.103Z,98433.47
2018-05-06T21:10:04.855Z,98431.92
2018-05-06T21:12:33.323Z,98432.44
2018-05-06T21:15:01.616Z,98430.02
2018-05-06T21:17:29.725Z,98434.64
2018-05-06T21:19:58.032Z,98437.42
2018-05-06T21:22:26.331Z,98441.23
2018-05-06T21:24:56.114Z,98440.27
2018-05-06T21:27:25.206Z,98433.94
2018-05-06T21:29:54.206Z,98426.40
2018-05-06T21:32:23.280Z,98429.23
2018-05-06T21:34:51.688Z,98425.52
2018-05-06T21:37:20.667Z,98435.25
2018-05-06T21:39:49.638Z,98435.91
2018-05-06T21:42:17.919Z,98439.28
2018-05-06T21:44:46.318Z,98439.92
2018-05-06T21:47:14.604Z,98435.23
2018-05-06T21:49:42.889Z,98435.38
2018-05-06T21:52:11.191Z,98434.31
2018-05-06T21:54:39.532Z,98432.43
2018-05-06T21:57:09.126Z,98440.13
2018-05-06T21:59:37.427Z,98433.63
2018-05-06T22:02:05.755Z,98437.89
2018-05-06T22:04:34.079Z,98439.48
2018-05-06T22:07:02.943Z,98438.61
2018-05-06T22:09:32.035Z,98442.00
2018-05-06T22:12:00.343Z,98441.33
2018-05-06T22:14:29.683Z,98435.47
2018-05-06T22:16:57.965Z,98444.16
2018-05-06T22:19:27.047Z,98439.22
2018-05-06T22:21:55.515Z,98446.05
2018-05-06T22:24:24.598Z,98444.22
2018-05-06T22:26:53.566Z,98442.55
2018-05-06T22:29:21.867Z,98440.61
2018-05-06T22:31:50.252Z,98437.05
2018-05-06T22:34:18.612Z,98439.84
2018-05-06T22:36:47.862Z,98444.78
2018-05-06T22:39:16.734Z,98447.25
2018-05-06T22:41:45.183Z,98440.16
2018-05-06T22:44:13.319Z,98447.66
2018-05-06T22:46:42.392Z,98447.42
2018-05-06T22:49:10.678Z,98441.44
2018-05-06T22:51:39.026Z,98445.38
2018-05-06T22:54:07.880Z,98445.97
2018-05-06T22:56:36.735Z,98451.57
2018-05-06T22:59:05.371Z,98446.16
2018-05-06T23:01:33.887Z,98438.19
2018-05-06T23:04:02.164Z,98442.88
2018-05-06T23:06:31.170Z,98435.41
2018-05-06T23:08:59.750Z,98431.95
2018-05-06T23:11:28.030Z,98434.31
2018-05-06T23:13:56.311Z,98427.12
2018-05-06T23:16:24.702Z,98424.69
2018-05-06T23:18:53.224Z,98431.47
2018-05-06T23:21:21.996Z,98421.84
2018-05-06T23:23:51.311Z,98425.67
2018-05-06T23:26:19.619Z,98424.19
2018-05-06T23:28:48.185Z,98426.39
2018-05-06T23:31:16.778Z,98421.72
2018-05-06T23:33:45.058Z,98421.70
2018-05-06T23:36:13.495Z,98419.56
2018-05-06T23:38:43.479Z,98415.31
2018-05-06T23:41:12.873Z,98416.89
2018-05-06T23:43:41.162Z,98420.38
2018-05-06T23:46:09.600Z,98414.83
2018-05-06T23:48:38.036Z,98410.06
2018-05-06T23:51:07.435Z,98407.50
2018-05-06T23:53:36.939Z,98410.34
2018-05-06T23:56:05.707Z,98407.22
2018-05-06T23:58:35.086Z,98406.60
